Portada
METAR-TAF:

METAR-TAF

Aeropuertos :

Aeropuerto Internacional de Bucarest-Henri Coandă

Bucarest, Rumania

latitud: 44-33N, longitud: 026-06E, altitud: 95 m

Observación

El informe se hizo hace 28 minutos, a las 10:00 UTC
Viento 7 kt del este-sureste
Temperatura 25°C
Humedad 47%
Presión 1021 hPa
Visibilidad 10 km o más
Escasas nubes a una altura de 4700 ft

METAR: LROP 231000Z 12007KT 9999 FEW047 25/13 Q1021 NOSIG

Hora: 13:28 (10:28 UTC)

Pronóstico

El informe se hizo hace 5 horas y 28 minutos, a las 05:00 UTC
Pronóstico válido del 23 a las 06 UTC al 24 a las 06 UTC
Viento 8 kt del este
Visibilidad 10 km o más
sin nubes por debajo de 1500 m y sin presencia de cumulonimbus.

TAF: LROP 230500Z 2306/2406 09008KT CAVOK

Observaciones y pronósticos meteorológicos de más de 4000 aeropuertos (mensajes METAR y TAF).

Los puntos amarillos y rojos representan las estaciones disponibles.

Ponga el ratón en el punto deseado para ver el nombre de la estación.

Haga clic para ver las observaciones y los pronósticos meteorológicos.

Para cambiar el mapa : haga clic en los botones verdes con una cruz de color negro para hacer un zoom, en el botón verde con un guión para alejar o en las flechas verdes para mapas adyacentes.


METAR-TAF: